תחנות METAR סמוכות

 

LLBG - Ben-Gurion(Civ/M, Israel
Distance from station: 'מ 83km
עודכן: 23/07/2019 17:20
בהיר
בהיר
 רוח מ 'מצמ
רוח: 'מצמ 20 km/h
טמפרטורה: 32°C
עומס חום: 36°C
נקודת הטל: 21°C
לחות: 52%
ברומטר: 1005 hPa
סיכום: בהיר
ראות: greater than 10 km
2019/07/23 14:20 LLBG 231420Z 29011KT CAVOK 32/21 Q1005 NOSIG
LLSD - Sde Dov Airport, Israel
Distance from station: 'מ 75km
עודכן: 30/06/2019 23:50
לא מעודכן
מעונן חלקית
מעונן חלקית
 רוח מ משתנה
רוח: משתנה 6 km/h
טמפרטורה: 27°C
עומס חום: 30°C
נקודת הטל: 23°C
לחות: 79%
ברומטר: 1007 hPa
עננים: מעונן חלקית
ראות: 10 km
Cloud details: מעונן חלקית 518 m
2019/06/30 20:50 LLSD 302050Z VRB03KT 9999 SCT017 27/23 Q1007
 
LLHA - Haifa (isr-Afb), Israel
Distance from station: 'צמ 129km
עודכן: 23/07/2019 16:50
Few Clouds
Few Clouds
 רוח מ 'מצמ
רוח: 'מצמ 17 km/h
טמפרטורה: 32°C
עומס חום: 33°C
נקודת הטל: 18°C
לחות: 43%
ברומטר: 1004 hPa
עננים: Few Clouds
ראות: 10 km
Cloud details: Few Clouds 610 m
2019/07/23 13:50 LLHA 231350Z 29009KT 9999 FEW020 32/18 Q1004
LLIB - Ben Ya Akov, Israel
Distance from station: 'צמ 183km
עודכן: 23/07/2019 16:50
בהיר
בהיר
 רוח מ 'מ
רוח: 'מ 22 km/h
טמפרטורה: 34°C
נקודת הטל: 10°C
לחות: 23%
ברומטר: 1005 hPa
סיכום: בהיר
ראות: greater than 10 km
2019/07/23 13:50 LLIB 231350Z 28012KT 250V310 CAVOK 34/10 Q1005
 
LLOV - Ovda (isr-Afb/Ci, Israel
Distance from station: 'דדמ 246km
עודכן: 31/03/2019 22:50
לא מעודכן
בהיר
בהיר
 רוח מ 'מדמ
רוח: 'מדמ 13 km/h
טמפרטורה: 12°C
נקודת הטל: 0°C
לחות: 44%
ברומטר: 1012 hPa
סיכום: בהיר
ראות: greater than 10 km
2019/03/31 19:50 LLOV 311950Z 24007KT CAVOK 12/00 Q1012
LLET - Elat/J. Hozman(A, Israel
Distance from station: 'דדמ 287km
עודכן: 18/03/2019 17:50
לא מעודכן
בהיר
בהיר
 רוח מ 'צצמ
רוח: 'צצמ 30 km/h
טמפרטורה: 24°C
נקודת הטל: -1°C
לחות: 19%
ברומטר: 1016 hPa
סיכום: בהיר
ראות: greater than 10 km
2019/03/18 15:50 LLET 181550Z 02016KT CAVOK 24/M01 Q1016
 
LCLK - Larnaca/Larnax A, Cyprus
Distance from station: 'צ 321km
עודכן: 23/07/2019 17:00
Few Clouds
Few Clouds
 רוח מ 'דדמ
רוח: 'דדמ 24 km/h
טמפרטורה: 33°C
עומס חום: 35°C
נקודת הטל: 20°C
לחות: 46%
ברומטר: 1003 hPa
עננים: Few Clouds
ראות: 10 km
Cloud details: Few Clouds 914 m
2019/07/23 14:00 LCLK 231400Z 20013KT 9999 FEW030 33/20 Q1003 NOSIG